Terminal Aerodrome Forecast
Issued by NWS

Home | Current Version | Previous Version | Text Only | Print | Product List | Glossary On
Versions: 1 2 3 4 5 6 7 8 9 10 11 12 13 14 15 16 17 18 19 20 21 22 23 24 25 26 27 28 29 30 31 32
000
FTUS43 KLOT 292102 AAA
TAFDPA
TAF AMD
KDPA 292102Z 2921/3018 07014G22KT P6SM VCSH BKN060 BKN100
      TEMPO 2923/3001 5SM -SHRA BKN050 OVC060
     FM300600 08016G25KT 3SM -SHRA BKN030 OVC050
     FM300800 08016G25KT 3SM -SHRA BKN015 OVC030 PROB30 3009/3012
      2SM -TSRA BKN015 OVC030CB
     FM301200 08018G25KT 2SM -SHRA BR BKN007 OVC012=

USA.gov is the U.S. government's official web portal to all federal, state and local government web resources and services.